KDAG/DAG METAR and TAF weather

Enter ICAO airport designator
Station Type Date Time Source
KDAG METAR 2021/09/23 16:50 UTC NOAA

KDAG 231650Z AUTO 27010KT 10SM SCT095 26/09 A2996 RMK AO2 SLP119 T02560089 $


Station Type Date Time Source
KDAG Decoded METAR 2021/09/23 16:50 UTC NOAA

BARSTOW-DAGGETT AIRPORT, CA, United States (KDAG) 34-51N 116-47W 587M
Sep 23, 2021 - 12:50 PM EDT / 2021.09.23 1650 UTC
Wind: from the W (270 degrees) at 12 MPH (10 KT):0
Visibility: 10 mile(s):0
Sky conditions: partly cloudy
Temperature: 78.1 F (25.6 C)
Dew Point: 48.0 F (8.9 C)
Relative Humidity: 34%
Pressure (altimeter): 29.96 in. Hg (1014 hPa)
ob: KDAG 231650Z AUTO 27010KT 10SM SCT095 26/09 A2996 RMK AO2 SLP119 T02560089
cycle: 17

Station Type Date Time Source
KDAG TAF 2021/09/23 18:30 UTC NOAA

TAF KDAG 231729Z 2318/2418 26012KT P6SM SCT250
FM231900 26010KT 6SM FU SCT250
FM240200 26012KT 5SM FU FEW250

Example: see airport list